Time;durP1;ratioP1;P1;durP2;ratioP2;P2;SDS_P1;SDS_P2;PMS_P1;PMS_P2;Temp;Humidity;BMP_temperature;BMP_pressure;BME280_temperature;BME280_humidity;BME280_pressure;Samples;Min_cycle;Max_cycle;Signal;HPM_P1;HPM_P2
2022/10/28 00:01:33;;;;;;;28.02;14.75;;;15.40;99.90;;;;;;4955870;28;20536;-66
2022/10/28 00:04:00;;;;;;;25.95;14.70;;;15.40;99.90;;;;;;4961670;28;20047;-68
2022/10/28 00:06:29;;;;;;;29.98;14.82;;;15.40;99.90;;;;;;4953408;28;20122;-68
2022/10/28 00:08:56;;;;;;;25.25;15.25;;;15.30;99.90;;;;;;4954822;28;20378;-69
2022/10/28 00:11:31;;;;;;;27.60;15.07;;;15.20;99.90;;;;;;4955469;28;20085;-68
2022/10/28 00:14:02;;;;;;;30.20;15.00;;;15.20;99.90;;;;;;4954071;28;20043;-68
2022/10/28 00:16:33;;;;;;;27.75;15.35;;;15.30;99.90;;;;;;4954508;28;20051;-66
2022/10/28 00:18:59;;;;;;;29.90;15.45;;;15.30;99.90;;;;;;4951819;28;20047;-68
2022/10/28 00:21:27;;;;;;;28.83;15.35;;;15.30;99.90;;;;;;4956961;28;20051;-69
2022/10/28 00:23:53;;;;;;;29.88;15.50;;;15.30;99.90;;;;;;4954921;28;20047;-67
2022/10/28 00:26:30;;;;;;;25.17;14.95;;;15.40;99.90;;;;;;4952729;28;20040;-67
2022/10/28 00:29:03;;;;;;;29.27;15.68;;;15.40;99.90;;;;;;4959661;28;20525;-67
2022/10/28 00:31:30;;;;;;;22.42;14.93;;;15.40;99.90;;;;;;4954020;28;20043;-67
2022/10/28 00:33:57;;;;;;;30.50;16.02;;;15.40;99.90;;;;;;4954426;29;20508;-67
2022/10/28 00:36:25;;;;;;;29.13;15.27;;;15.40;99.90;;;;;;4951138;28;20050;-66
2022/10/28 00:38:52;;;;;;;30.05;15.63;;;15.50;99.90;;;;;;4953632;28;20040;-66
2022/10/28 00:41:24;;;;;;;31.30;14.98;;;15.50;99.90;;;;;;4953607;28;20069;-67
2022/10/28 00:43:53;;;;;;;29.50;15.13;;;15.50;99.90;;;;;;4954462;29;20119;-67
2022/10/28 00:46:25;;;;;;;23.88;14.50;;;15.50;99.90;;;;;;4953265;28;20502;-66
2022/10/28 00:48:58;;;;;;;24.50;14.88;;;15.50;99.90;;;;;;4955833;28;20401;-66
2022/10/28 00:51:26;;;;;;;29.75;15.02;;;15.60;99.90;;;;;;4953807;29;20102;-66
2022/10/28 00:53:54;;;;;;;32.97;15.48;;;15.60;99.90;;;;;;4958421;28;20038;-66
2022/10/28 00:56:21;;;;;;;28.90;14.00;;;15.60;99.90;;;;;;4953546;28;20070;-67
2022/10/28 00:58:48;;;;;;;22.95;13.57;;;15.60;99.90;;;;;;4953659;28;20040;-67
2022/10/28 01:01:14;;;;;;;27.40;14.98;;;15.60;99.90;;;;;;4954141;28;20169;-67
2022/10/28 01:03:40;;;;;;;28.95;14.40;;;15.60;99.90;;;;;;4965092;28;20538;-67
2022/10/28 01:06:06;;;;;;;26.02;14.07;;;15.60;99.90;;;;;;4952375;28;20043;-67
2022/10/28 01:08:31;;;;;;;26.25;14.20;;;15.50;99.90;;;;;;4953611;29;20042;-67
2022/10/28 01:11:04;;;;;;;26.67;14.70;;;15.50;99.90;;;;;;4950568;28;20449;-66
2022/10/28 01:13:47;;;;;;;28.23;13.95;;;15.40;99.90;;;;;;4955724;28;20126;-67
2022/10/28 01:16:35;;;;;;;27.50;15.15;;;15.30;99.90;;;;;;4956568;28;20043;-67
2022/10/28 01:19:21;;;;;;;20.33;12.95;;;15.20;99.90;;;;;;4971033;28;20105;-67
2022/10/28 01:22:02;;;;;;;26.73;13.90;;;15.00;99.90;;;;;;4953736;28;20043;-67
2022/10/28 01:25:09;;;;;;;38.20;13.82;;;14.90;99.90;;;;;;4953347;28;20076;-67
2022/10/28 01:28:15;;;;;;;24.17;13.68;;;14.80;99.90;;;;;;4930983;28;20047;-66
2022/10/28 01:31:21;;;;;;;30.65;14.80;;;14.70;99.90;;;;;;4940083;28;20047;-66
2022/10/28 01:34:11;;;;;;;34.10;15.15;;;14.70;99.90;;;;;;4953714;28;20502;-67
2022/10/28 01:36:57;;;;;;;28.52;14.45;;;14.70;99.90;;;;;;4950822;28;20039;-66
2022/10/28 01:39:57;;;;;;;32.17;15.20;;;14.70;99.90;;;;;;4955034;28;20039;-67
2022/10/28 01:42:33;;;;;;;27.55;14.80;;;14.70;99.90;;;;;;4951818;29;20047;-66
2022/10/28 01:45:21;;;;;;;29.25;15.35;;;14.60;99.90;;;;;;4954744;28;20035;-66
2022/10/28 01:47:59;;;;;;;26.65;14.63;;;14.50;99.90;;;;;;4956913;28;20039;-67
2022/10/28 01:51:08;;;;;;;23.55;14.88;;;14.50;99.90;;;;;;4953563;28;20063;-67
2022/10/28 01:53:38;;;;;;;36.50;15.43;;;14.40;99.90;;;;;;4892728;29;20087;-67
2022/10/28 01:56:08;;;;;;;;;;;14.30;99.90;;;;;;4945660;28;20588;-66
2022/10/28 01:58:35;;;;;;;23.05;13.45;;;14.30;99.90;;;;;;4951697;28;19922;-66
2022/10/28 02:01:05;;;;;;;28.35;13.55;;;14.20;99.90;;;;;;4951023;28;20053;-66
2022/10/28 02:03:30;;;;;;;23.25;12.98;;;14.00;99.90;;;;;;4956529;28;20070;-66
2022/10/28 02:05:59;;;;;;;25.95;15.30;;;14.00;99.90;;;;;;4952800;28;20635;-66
2022/10/28 02:08:49;;;;;;;27.45;16.23;;;13.90;99.90;;;;;;4952893;28;20568;-66
2022/10/28 02:11:20;;;;;;;31.45;16.92;;;14.00;99.90;;;;;;4959769;28;20548;-66
2022/10/28 02:13:46;;;;;;;;;;;13.90;99.90;;;;;;4957385;28;20058;-66
2022/10/28 02:16:33;;;;;;;27.50;15.32;;;13.90;99.90;;;;;;4955415;28;20361;-66
2022/10/28 02:19:01;;;;;;;23.58;13.50;;;13.90;99.90;;;;;;4956356;28;20054;-66
2022/10/28 02:22:05;;;;;;;26.05;14.57;;;13.80;99.90;;;;;;4957466;28;20085;-67
2022/10/28 02:24:44;;;;;;;27.80;14.85;;;13.80;99.90;;;;;;4956969;29;20035;-67
2022/10/28 02:27:35;;;;;;;24.17;13.65;;;13.80;99.90;;;;;;4954716;28;20051;-67
2022/10/28 02:30:06;;;;;;;28.05;14.05;;;13.80;99.90;;;;;;4956230;28;20164;-67
2022/10/28 02:32:38;;;;;;;26.85;13.65;;;13.70;99.90;;;;;;4956513;28;20065;-66
2022/10/28 02:35:09;;;;;;;22.70;12.10;;;13.70;99.90;;;;;;4953949;28;20039;-66
2022/10/28 02:37:37;;;;;;;24.63;13.38;;;13.50;99.90;;;;;;4960576;28;20086;-67
2022/10/28 02:40:08;;;;;;;24.40;13.40;;;13.50;99.90;;;;;;4955750;28;20094;-67
2022/10/28 02:42:37;;;;;;;22.85;13.38;;;13.50;99.90;;;;;;4961353;28;20074;-66
2022/10/28 02:45:38;;;;;;;20.73;13.45;;;13.40;99.90;;;;;;4959082;28;20446;-66
2022/10/28 02:48:10;;;;;;;23.27;13.13;;;13.40;99.90;;;;;;4943728;28;20067;-66
2022/10/28 02:50:39;;;;;;;21.23;13.65;;;13.40;99.90;;;;;;4963719;28;20054;-67
2022/10/28 02:53:25;;;;;;;23.83;13.73;;;13.40;99.90;;;;;;4952936;28;20043;-66
2022/10/28 02:55:53;;;;;;;25.05;13.35;;;13.40;99.90;;;;;;4955971;28;20409;-66
2022/10/28 02:58:20;;;;;;;22.17;13.00;;;13.40;99.90;;;;;;4956169;29;20036;-66
2022/10/28 03:00:45;;;;;;;25.30;14.73;;;13.50;99.90;;;;;;4954692;28;20074;-66
2022/10/28 03:03:12;;;;;;;22.92;14.15;;;13.60;99.90;;;;;;4960059;28;20461;-67
2022/10/28 03:05:38;;;;;;;23.80;14.52;;;13.60;99.90;;;;;;4955997;28;20031;-66
2022/10/28 03:08:04;;;;;;;25.00;14.55;;;13.60;99.90;;;;;;4956772;28;20039;-67
2022/10/28 03:10:29;;;;;;;28.08;15.15;;;13.60;99.90;;;;;;4959795;28;20078;-67
2022/10/28 03:12:55;;;;;;;30.50;15.55;;;13.70;99.90;;;;;;4955609;28;20039;-67
2022/10/28 03:15:20;;;;;;;26.08;14.90;;;13.70;99.90;;;;;;4955686;29;20154;-67
2022/10/28 03:17:46;;;;;;;28.35;15.93;;;13.70;99.90;;;;;;4958217;28;20043;-67
2022/10/28 03:20:12;;;;;;;27.27;15.15;;;13.80;99.90;;;;;;4953160;28;20043;-67
2022/10/28 03:22:37;;;;;;;30.77;16.33;;;13.70;99.90;;;;;;4955566;28;20118;-66
2022/10/28 03:25:03;;;;;;;31.08;16.08;;;13.80;99.90;;;;;;4955946;28;20066;-66
2022/10/28 03:27:29;;;;;;;28.02;16.67;;;13.90;99.90;;;;;;4959996;28;20047;-67
2022/10/28 03:29:55;;;;;;;25.60;14.98;;;13.90;99.90;;;;;;4956591;28;20047;-66
2022/10/28 03:32:20;;;;;;;31.17;16.00;;;13.90;99.90;;;;;;4953786;28;20102;-67
2022/10/28 03:34:46;;;;;;;29.42;15.98;;;13.90;99.90;;;;;;4954948;28;20054;-67
2022/10/28 03:37:12;;;;;;;25.92;16.08;;;13.90;99.90;;;;;;4964556;28;20070;-67
2022/10/28 03:39:38;;;;;;;29.58;15.40;;;14.00;99.90;;;;;;4964855;28;20043;-67
2022/10/28 03:42:04;;;;;;;27.80;14.77;;;13.90;99.90;;;;;;4963385;28;20035;-66
2022/10/28 03:44:29;;;;;;;29.48;14.57;;;13.90;99.90;;;;;;4959562;28;20038;-67
2022/10/28 03:46:55;;;;;;;25.25;14.70;;;13.80;99.90;;;;;;4953013;28;20121;-67
2022/10/28 03:49:20;;;;;;;23.15;14.02;;;13.70;99.90;;;;;;4957966;28;20054;-66
2022/10/28 03:51:46;;;;;;;27.30;13.88;;;13.70;99.90;;;;;;4954491;28;20054;-67
2022/10/28 03:54:11;;;;;;;22.70;14.07;;;13.60;99.90;;;;;;4955371;29;20121;-66
2022/10/28 03:56:39;;;;;;;27.98;13.82;;;13.60;99.90;;;;;;4952039;28;20050;-66
2022/10/28 03:59:07;;;;;;;25.08;14.02;;;13.60;99.90;;;;;;4959910;28;20163;-66
2022/10/28 04:01:32;;;;;;;25.40;14.98;;;13.70;99.90;;;;;;4959244;28;20043;-67
2022/10/28 04:03:58;;;;;;;34.97;15.77;;;13.70;99.90;;;;;;4974219;28;20054;-67
2022/10/28 04:06:23;;;;;;;24.42;14.60;;;13.80;99.90;;;;;;4974279;28;20031;-67
2022/10/28 04:08:49;;;;;;;24.10;14.23;;;13.80;99.90;;;;;;4964686;28;20054;-67
2022/10/28 04:11:15;;;;;;;22.92;14.23;;;13.80;99.90;;;;;;4954095;28;20042;-67
2022/10/28 04:13:40;;;;;;;27.63;13.00;;;13.80;99.90;;;;;;4954378;28;20122;-67
2022/10/28 04:16:06;;;;;;;24.15;13.80;;;13.80;99.90;;;;;;4957606;28;20065;-67
2022/10/28 04:18:31;;;;;;;22.98;12.82;;;13.70;99.90;;;;;;4949044;28;20062;-67
2022/10/28 04:20:57;;;;;;;29.83;14.18;;;13.60;99.90;;;;;;4951256;28;20486;-67
2022/10/28 04:23:23;;;;;;;24.70;12.88;;;13.70;99.90;;;;;;4960145;28;20034;-67
2022/10/28 04:25:53;;;;;;;23.95;13.65;;;13.70;99.90;;;;;;4963552;28;20027;-67
2022/10/28 04:28:19;;;;;;;25.52;13.32;;;13.80;99.90;;;;;;4951349;28;20059;-67
2022/10/28 04:30:48;;;;;;;29.73;13.38;;;13.80;99.90;;;;;;4949648;28;20043;-67
2022/10/28 04:33:13;;;;;;;24.52;12.75;;;13.90;99.90;;;;;;4962389;28;20049;-67
2022/10/28 04:35:41;;;;;;;27.88;12.48;;;14.00;99.90;;;;;;4951014;28;20039;-67
2022/10/28 04:38:11;;;;;;;23.48;12.40;;;14.00;99.90;;;;;;4952006;28;20047;-67
2022/10/28 04:40:37;;;;;;;26.08;12.57;;;14.10;99.90;;;;;;4951754;28;20051;-67
2022/10/28 04:43:03;;;;;;;24.65;12.63;;;14.20;99.90;;;;;;4953345;28;20118;-67
2022/10/28 04:45:29;;;;;;;24.00;12.52;;;14.30;99.90;;;;;;4959576;28;20066;-67
2022/10/28 04:47:59;;;;;;;28.35;13.25;;;14.40;99.90;;;;;;4962679;28;20034;-67
2022/10/28 04:50:24;;;;;;;24.08;13.27;;;14.50;99.90;;;;;;4961078;28;20075;-67
2022/10/28 04:52:50;;;;;;;25.45;13.05;;;14.50;99.90;;;;;;4953651;28;20070;-67
2022/10/28 04:55:15;;;;;;;24.60;12.90;;;14.60;99.90;;;;;;4954042;29;20469;-68
2022/10/28 04:57:41;;;;;;;24.17;12.95;;;14.60;99.90;;;;;;4955345;28;20039;-67
2022/10/28 05:00:07;;;;;;;24.08;12.68;;;14.70;99.90;;;;;;4965123;28;20043;-67
2022/10/28 05:02:33;;;;;;;28.10;12.10;;;14.80;99.90;;;;;;4971204;28;20485;-67
2022/10/28 05:05:02;;;;;;;23.55;11.93;;;14.90;99.90;;;;;;4959185;28;20050;-67
2022/10/28 05:07:28;;;;;;;26.52;12.30;;;15.00;99.90;;;;;;4952913;28;20051;-67
2022/10/28 05:09:54;;;;;;;18.27;12.07;;;15.00;99.90;;;;;;4953432;28;20070;-67
2022/10/28 05:12:19;;;;;;;22.67;12.38;;;15.10;99.90;;;;;;4950606;28;20078;-67
2022/10/28 05:14:45;;;;;;;26.38;12.23;;;15.10;99.90;;;;;;4962775;28;20159;-67
2022/10/28 05:17:11;;;;;;;21.83;11.40;;;15.00;99.90;;;;;;4953625;28;20043;-67
2022/10/28 05:19:36;;;;;;;25.10;12.15;;;15.00;99.90;;;;;;4956006;28;20046;-67
2022/10/28 05:22:02;;;;;;;27.63;12.65;;;15.10;99.90;;;;;;4950907;28;20418;-67
2022/10/28 05:24:28;;;;;;;28.85;12.35;;;15.10;99.90;;;;;;4965436;28;20541;-67
2022/10/28 05:26:53;;;;;;;26.60;12.73;;;15.10;99.90;;;;;;4966275;28;20038;-67
2022/10/28 05:29:19;;;;;;;31.77;12.57;;;15.00;99.90;;;;;;4972052;28;20449;-66
2022/10/28 05:31:45;;;;;;;27.33;11.77;;;15.00;99.90;;;;;;4958379;28;20485;-67
2022/10/28 05:34:11;;;;;;;25.63;12.10;;;15.00;99.90;;;;;;4953281;28;20035;-66
2022/10/28 05:36:37;;;;;;;20.45;11.43;;;15.00;99.90;;;;;;4954646;28;20043;-66
2022/10/28 05:39:03;;;;;;;23.83;11.82;;;15.10;99.90;;;;;;4939508;28;20093;-66
2022/10/28 05:41:29;;;;;;;25.63;11.50;;;15.10;99.90;;;;;;4952531;28;20497;-66
2022/10/28 05:43:55;;;;;;;20.75;11.70;;;15.30;99.90;;;;;;4956945;28;20043;-66
2022/10/28 05:46:21;;;;;;;22.83;11.90;;;15.20;99.90;;;;;;4960032;29;20043;-66
2022/10/28 05:48:47;;;;;;;20.35;11.90;;;15.20;99.90;;;;;;4957941;28;20043;-66
2022/10/28 05:51:12;;;;;;;22.05;11.52;;;15.10;99.90;;;;;;4966444;28;20429;-66
2022/10/28 05:53:40;;;;;;;29.17;12.13;;;15.10;99.90;;;;;;4959468;28;20043;-68
2022/10/28 05:56:06;;;;;;;23.25;11.73;;;15.10;99.90;;;;;;4956965;28;20058;-68
2022/10/28 05:58:32;;;;;;;22.48;11.40;;;15.10;99.90;;;;;;4958323;28;20055;-68
2022/10/28 06:00:58;;;;;;;25.08;11.70;;;15.10;99.90;;;;;;4959295;28;20094;-68
2022/10/28 06:03:23;;;;;;;25.45;12.25;;;15.10;99.90;;;;;;4960116;28;20395;-68
2022/10/28 06:05:49;;;;;;;20.20;11.60;;;15.10;99.90;;;;;;4959156;28;20087;-68
2022/10/28 06:08:15;;;;;;;22.45;11.80;;;15.10;99.90;;;;;;4959103;28;20054;-68
2022/10/28 06:10:41;;;;;;;25.23;11.23;;;15.10;99.90;;;;;;4959699;29;20102;-67
2022/10/28 06:13:07;;;;;;;19.60;11.68;;;15.10;99.90;;;;;;4958557;28;20048;-66
2022/10/28 06:15:33;;;;;;;25.60;11.80;;;15.10;99.90;;;;;;4970749;28;20051;-66
2022/10/28 06:17:59;;;;;;;23.52;11.52;;;15.00;99.90;;;;;;4959275;28;20390;-66
2022/10/28 06:20:24;;;;;;;22.23;11.60;;;15.00;99.90;;;;;;4958786;29;20118;-66
2022/10/28 06:22:51;;;;;;;21.50;11.60;;;14.90;99.90;;;;;;4979369;23;20066;-69
2022/10/28 06:25:19;;;;;;;23.63;11.30;;;14.90;99.90;;;;;;4950088;29;20047;-69
2022/10/28 06:27:44;;;;;;;32.90;12.35;;;14.80;99.90;;;;;;4943792;28;20576;-70
2022/10/28 06:30:11;;;;;;;21.98;12.45;;;14.80;99.90;;;;;;4937702;29;20039;-72
2022/10/28 06:32:36;;;;;;;27.35;12.30;;;14.80;99.90;;;;;;4945755;28;20055;-72
2022/10/28 06:35:02;;;;;;;23.38;11.40;;;14.80;99.90;;;;;;4943335;29;20054;-72
2022/10/28 06:37:28;;;;;;;21.35;12.02;;;14.80;99.90;;;;;;4951920;28;20053;-72
2022/10/28 06:39:53;;;;;;;27.35;12.85;;;14.80;99.90;;;;;;4949205;28;20044;-69
2022/10/28 06:42:20;;;;;;;26.27;11.55;;;14.70;99.90;;;;;;4941086;28;20126;-70
2022/10/28 06:44:45;;;;;;;23.95;12.20;;;14.70;99.90;;;;;;4935927;28;20122;-70
2022/10/28 06:47:11;;;;;;;26.42;11.77;;;14.80;99.90;;;;;;4945621;29;20185;-70
2022/10/28 06:49:37;;;;;;;29.27;11.85;;;14.80;99.90;;;;;;4946530;29;20054;-70
2022/10/28 06:52:02;;;;;;;24.52;12.07;;;14.80;99.90;;;;;;4942503;29;20490;-70
2022/10/28 06:54:28;;;;;;;31.63;12.32;;;14.80;99.90;;;;;;4938893;28;20094;-70
2022/10/28 06:56:53;;;;;;;24.27;12.07;;;14.80;99.90;;;;;;4942255;29;20342;-70
2022/10/28 06:59:19;;;;;;;23.75;12.32;;;14.90;99.90;;;;;;4940849;28;20055;-70
2022/10/28 07:01:45;;;;;;;25.10;12.30;;;14.90;99.90;;;;;;4939264;29;20039;-70
2022/10/28 07:04:11;;;;;;;30.50;12.10;;;14.90;99.90;;;;;;4947939;29;20062;-70
2022/10/28 07:06:38;;;;;;;24.90;11.60;;;14.90;99.90;;;;;;4951138;28;20055;-70
2022/10/28 07:09:03;;;;;;;27.63;11.55;;;14.90;99.90;;;;;;4937151;28;20487;-70
2022/10/28 07:11:29;;;;;;;22.42;11.27;;;14.90;99.90;;;;;;4943915;29;20051;-70
2022/10/28 07:13:54;;;;;;;25.73;11.00;;;15.00;99.90;;;;;;4940103;29;20044;-70
2022/10/28 07:16:20;;;;;;;24.27;11.35;;;15.00;99.90;;;;;;4946107;29;20035;-70
2022/10/28 07:18:45;;;;;;;22.73;11.35;;;15.10;99.90;;;;;;4939697;29;20454;-70
2022/10/28 07:21:12;;;;;;;21.65;11.80;;;15.10;99.90;;;;;;4939610;29;20040;-69
2022/10/28 07:23:38;;;;;;;23.08;11.07;;;15.10;99.90;;;;;;4934913;29;20047;-69
2022/10/28 07:26:04;;;;;;;24.02;11.35;;;15.10;99.90;;;;;;4947898;29;20379;-70
2022/10/28 07:28:30;;;;;;;23.55;11.52;;;15.20;99.90;;;;;;4939116;29;20458;-70
2022/10/28 07:31:00;;;;;;;26.63;12.73;;;15.30;99.90;;;;;;4947616;28;20035;-69
2022/10/28 07:33:26;;;;;;;23.70;11.57;;;15.30;99.90;;;;;;4942111;28;20043;-69
2022/10/28 07:35:51;;;;;;;20.13;11.25;;;15.30;99.90;;;;;;4941346;29;20289;-70
2022/10/28 07:38:17;;;;;;;20.45;11.20;;;15.40;99.90;;;;;;4946738;28;22455;-70
2022/10/28 07:40:43;;;;;;;24.92;10.82;;;15.60;99.90;;;;;;4939122;28;20043;-70
2022/10/28 07:43:08;;;;;;;20.38;11.00;;;15.60;99.90;;;;;;4949648;29;20416;-70
2022/10/28 07:45:34;;;;;;;28.70;11.93;;;15.70;99.90;;;;;;4946024;28;20047;-69
2022/10/28 07:48:00;;;;;;;22.98;11.07;;;15.70;99.90;;;;;;4954255;29;20368;-69
2022/10/28 07:50:26;;;;;;;23.27;10.98;;;15.80;99.90;;;;;;4949630;29;20577;-69
2022/10/28 07:52:51;;;;;;;20.15;10.80;;;15.80;99.90;;;;;;4931974;29;20094;-69
2022/10/28 07:55:17;;;;;;;23.73;11.20;;;15.90;99.90;;;;;;4948318;29;20500;-69
2022/10/28 07:57:43;;;;;;;19.98;10.95;;;16.00;99.90;;;;;;4953232;29;20039;-69
2022/10/28 08:00:09;;;;;;;24.17;10.55;;;16.10;99.90;;;;;;4940915;29;20043;-70
2022/10/28 08:02:34;;;;;;;20.15;10.32;;;16.10;99.90;;;;;;4948600;29;20283;-69
2022/10/28 08:05:01;;;;;;;22.98;10.70;;;16.10;99.90;;;;;;4951940;29;20062;-68
2022/10/28 08:07:26;;;;;;;27.35;11.32;;;16.20;99.90;;;;;;4950473;28;20043;-69
2022/10/28 08:09:52;;;;;;;22.63;11.02;;;16.20;99.90;;;;;;4944597;29;20036;-69
2022/10/28 08:12:18;;;;;;;20.50;10.80;;;16.30;99.90;;;;;;4952931;29;20485;-69
2022/10/28 08:14:43;;;;;;;22.98;11.27;;;16.30;99.90;;;;;;4954172;28;20053;-70
2022/10/28 08:17:09;;;;;;;19.15;10.00;;;16.30;99.90;;;;;;4949086;29;20058;-69
2022/10/28 08:19:35;;;;;;;23.70;10.63;;;16.30;99.90;;;;;;4951811;29;20456;-70
2022/10/28 08:22:01;;;;;;;21.48;10.23;;;16.40;99.90;;;;;;4954294;29;20055;-70
2022/10/28 08:24:27;;;;;;;18.48;9.88;;;16.40;99.90;;;;;;4943083;28;20409;-70
2022/10/28 08:26:52;;;;;;;21.85;9.63;;;16.50;99.90;;;;;;4930168;29;20035;-70
2022/10/28 08:29:18;;;;;;;23.92;10.18;;;16.50;99.90;;;;;;4946059;29;20110;-70
2022/10/28 08:31:44;;;;;;;20.73;9.82;;;16.60;99.90;;;;;;4952541;29;20082;-70
2022/10/28 08:34:09;;;;;;;19.88;9.73;;;16.60;99.90;;;;;;4952566;29;20046;-69
2022/10/28 08:36:35;;;;;;;18.00;9.35;;;16.70;99.90;;;;;;4944926;29;20043;-70
2022/10/28 08:39:01;;;;;;;21.30;9.48;;;16.70;99.90;;;;;;4943695;29;20547;-69
2022/10/28 08:41:35;;;;;;;20.42;9.65;;;16.80;99.90;;;;;;4943955;29;20106;-69
2022/10/28 08:44:18;;;;;;;17.20;9.00;;;16.90;99.90;;;;;;4951876;28;20039;-70
2022/10/28 08:46:53;;;;;;;20.50;9.15;;;16.90;99.90;;;;;;4952100;29;20039;-69
2022/10/28 08:49:21;;;;;;;24.33;10.20;;;17.10;99.90;;;;;;4952762;29;20097;-69
2022/10/28 08:52:10;;;;;;;16.90;8.93;;;17.20;99.90;;;;;;4937120;29;20043;-69
2022/10/28 08:54:51;;;;;;;18.13;9.20;;;17.30;99.90;;;;;;4944568;28;20049;-69
2022/10/28 08:57:20;;;;;;;15.35;8.45;;;17.40;99.90;;;;;;4941626;29;20051;-69
2022/10/28 08:59:50;;;;;;;19.42;9.52;;;17.60;99.90;;;;;;4937473;29;20122;-70
2022/10/28 09:02:22;;;;;;;15.68;7.88;;;17.80;99.90;;;;;;4946887;29;20035;-69
2022/10/28 09:05:10;;;;;;;20.33;8.93;;;17.80;99.90;;;;;;4948052;28;20051;-69
2022/10/28 09:07:36;;;;;;;20.58;8.50;;;18.00;99.90;;;;;;4938101;29;20090;-69
2022/10/28 09:10:04;;;;;;;19.63;8.48;;;18.10;99.90;;;;;;4945177;29;20529;-69
2022/10/28 09:12:50;;;;;;;14.70;8.38;;;18.10;99.90;;;;;;4952510;28;20405;-69
2022/10/28 09:15:36;;;;;;;16.67;8.15;;;18.10;99.90;;;;;;4953559;28;20549;-69
2022/10/28 09:18:37;;;;;;;16.60;8.85;;;18.10;99.90;;;;;;4946245;28;20047;-69
2022/10/28 09:21:11;;;;;;;18.90;8.80;;;18.10;99.90;;;;;;4926837;28;20063;-69
2022/10/28 09:23:50;;;;;;;23.80;9.15;;;18.10;99.90;;;;;;4949799;29;20059;-69
2022/10/28 09:26:54;;;;;;;19.70;8.32;;;18.10;99.90;;;;;;4950384;29;20046;-69
2022/10/28 09:29:19;;;;;;;18.83;8.77;;;18.10;99.90;;;;;;4888426;29;20088;-69
2022/10/28 09:31:51;;;;;;;19.02;8.45;;;18.10;99.90;;;;;;4924480;29;20056;-69
2022/10/28 09:34:33;;;;;;;17.92;9.30;;;18.10;99.90;;;;;;4937044;29;20498;-69
2022/10/28 09:37:10;;;;;;;18.15;8.50;;;18.10;99.90;;;;;;4953428;28;20066;-69
2022/10/28 09:39:45;;;;;;;20.58;8.93;;;18.20;99.90;;;;;;4947567;28;20100;-69
2022/10/28 09:42:17;;;;;;;18.90;8.50;;;18.20;99.90;;;;;;4934538;29;20048;-70
2022/10/28 09:44:57;;;;;;;18.63;9.18;;;18.30;99.90;;;;;;4948413;29;20046;-69
2022/10/28 09:47:29;;;;;;;19.05;8.35;;;18.30;99.90;;;;;;4933461;29;20106;-70
2022/10/28 09:49:58;;;;;;;20.63;8.88;;;18.30;99.90;;;;;;4944800;29;20134;-69
2022/10/28 09:52:48;;;;;;;20.58;9.60;;;18.40;99.90;;;;;;4951537;29;20047;-70
2022/10/28 09:55:23;;;;;;;18.70;8.55;;;18.40;99.90;;;;;;4947761;29;20142;-69
2022/10/28 09:57:49;;;;;;;18.48;8.38;;;18.40;99.90;;;;;;4946964;29;20059;-69
2022/10/28 10:00:16;;;;;;;17.25;8.10;;;18.50;99.90;;;;;;4951955;29;20131;-69
2022/10/28 10:02:43;;;;;;;19.05;7.72;;;18.50;99.90;;;;;;4946549;28;20046;-69
2022/10/28 10:05:14;;;;;;;19.85;8.43;;;18.50;99.90;;;;;;4941523;29;20031;-69
2022/10/28 10:07:43;;;;;;;;;;;18.60;99.90;;;;;;4943436;29;20050;-69
2022/10/28 10:10:35;;;;;;;21.35;8.63;;;18.60;99.90;;;;;;4945865;29;20411;-70
2022/10/28 10:13:01;;;;;;;;;;;18.70;99.90;;;;;;4950605;29;20058;-69
2022/10/28 10:15:32;;;;;;;18.08;8.00;;;18.70;99.90;;;;;;4944589;28;19919;-69
2022/10/28 10:18:01;;;;;;;22.35;8.10;;;18.80;99.90;;;;;;4946146;29;20528;-70
2022/10/28 10:20:27;;;;;;;17.92;7.82;;;18.80;99.90;;;;;;4952262;28;20047;-70
2022/10/28 10:22:53;;;;;;;19.55;8.23;;;18.90;99.90;;;;;;4931818;29;20035;-70
2022/10/28 10:25:18;;;;;;;20.13;7.88;;;19.00;99.90;;;;;;4944773;29;20523;-70
2022/10/28 10:27:58;;;;;;;16.02;7.75;;;19.20;99.90;;;;;;4951566;29;20035;-70
2022/10/28 10:30:33;;;;;;;20.40;7.43;;;19.30;99.90;;;;;;4943143;29;20175;-70
2022/10/28 10:33:01;;;;;;;19.23;7.38;;;19.40;99.90;;;;;;4953605;29;20532;-69
2022/10/28 10:35:31;;;;;;;20.92;8.13;;;19.50;99.90;;;;;;4956398;28;20170;-70
2022/10/28 10:37:59;;;;;;;18.85;7.70;;;19.60;99.90;;;;;;4946394;29;20047;-70
2022/10/28 10:40:29;;;;;;;21.35;7.32;;;19.70;99.90;;;;;;4951376;28;20289;-70
2022/10/28 10:43:12;;;;;;;19.52;7.07;;;19.70;99.90;;;;;;4955771;28;20189;-70
2022/10/28 10:45:38;;;;;;;18.05;6.93;;;19.70;99.90;;;;;;4947644;29;20379;-70
2022/10/28 10:48:14;;;;;;;17.90;7.78;;;19.70;99.90;;;;;;4946068;29;20043;-70
2022/10/28 10:50:42;;;;;;;23.58;7.47;;;19.70;99.90;;;;;;4954399;29;20054;-70
2022/10/28 10:53:27;;;;;;;21.98;7.53;;;19.70;99.90;;;;;;4946407;28;20039;-70
2022/10/28 10:55:59;;;;;;;15.95;7.18;;;19.70;99.90;;;;;;4939102;29;20047;-70
2022/10/28 10:58:28;;;;;;;16.17;8.32;;;19.70;99.90;;;;;;4954682;29;20050;-70
2022/10/28 11:00:56;;;;;;;15.77;7.70;;;19.70;99.90;;;;;;4955777;29;20035;-70
2022/10/28 11:03:27;;;;;;;15.23;7.18;;;19.80;99.90;;;;;;4945977;29;20048;-70
2022/10/28 11:05:58;;;;;;;22.52;8.10;;;19.80;99.90;;;;;;4952541;29;20046;-70
2022/10/28 11:08:39;;;;;;;15.98;7.22;;;19.90;99.90;;;;;;4952605;29;20045;-70
2022/10/28 11:11:18;;;;;;;17.75;7.43;;;19.90;99.90;;;;;;4949069;29;20506;-70
2022/10/28 11:13:45;;;;;;;17.17;7.22;;;19.90;99.90;;;;;;4952044;29;20039;-70
2022/10/28 11:16:20;;;;;;;20.10;7.35;;;19.90;99.90;;;;;;4953092;29;20518;-70
2022/10/28 11:18:47;;;;;;;19.05;7.93;;;20.00;99.90;;;;;;4952467;29;20043;-70
2022/10/28 11:21:41;;;;;;;15.85;7.18;;;20.10;99.90;;;;;;4948901;29;20055;-70
2022/10/28 11:24:32;;;;;;;17.63;7.25;;;20.10;99.90;;;;;;4951859;28;20086;-70
2022/10/28 11:27:03;;;;;;;19.27;8.17;;;20.20;99.90;;;;;;4952513;29;20070;-70
2022/10/28 11:29:29;;;;;;;21.73;7.72;;;20.30;99.90;;;;;;4942282;29;20081;-70
2022/10/28 11:32:02;;;;;;;20.67;7.85;;;20.30;99.90;;;;;;4951312;29;20071;-69
2022/10/28 11:34:55;;;;;;;17.60;7.65;;;20.40;99.90;;;;;;4954046;28;20055;-70
2022/10/28 11:37:39;;;;;;;19.20;7.13;;;20.40;99.90;;;;;;4947858;29;20058;-69
2022/10/28 11:40:13;;;;;;;19.83;7.68;;;20.30;99.90;;;;;;4944848;29;20043;-70
2022/10/28 11:42:49;;;;;;;19.42;7.75;;;20.30;99.90;;;;;;4951232;28;20054;-70
2022/10/28 11:45:33;;;;;;;13.55;7.28;;;20.30;99.90;;;;;;4949528;28;20406;-70
2022/10/28 11:48:24;;;;;;;19.67;7.40;;;20.40;99.90;;;;;;4951604;29;20522;-70
2022/10/28 11:50:53;;;;;;;17.65;6.47;;;20.50;99.90;;;;;;4926473;29;20059;-69
2022/10/28 11:53:46;;;;;;;16.80;7.22;;;20.50;99.90;;;;;;4943807;29;20047;-71
2022/10/28 11:56:25;;;;;;;18.90;7.25;;;20.60;99.90;;;;;;4950429;29;20043;-71
2022/10/28 11:59:25;;;;;;;18.90;6.68;;;20.60;99.90;;;;;;4941912;29;20035;-71
2022/10/28 12:01:50;;;;;;;15.48;6.95;;;20.70;99.90;;;;;;4945449;29;20410;-70
2022/10/28 12:04:18;;;;;;;18.77;6.97;;;20.70;99.90;;;;;;4937201;29;20512;-70
2022/10/28 12:06:49;;;;;;;17.35;7.13;;;20.70;99.90;;;;;;4954382;28;20047;-70
2022/10/28 12:09:33;;;;;;;24.65;7.32;;;20.70;99.90;;;;;;4953626;29;20050;-70
2022/10/28 12:12:35;;;;;;;24.58;7.40;;;20.70;99.90;;;;;;4950364;28;20075;-71
2022/10/28 12:15:15;;;;;;;24.85;7.28;;;20.70;99.90;;;;;;4922177;29;20079;-71
2022/10/28 12:18:03;;;;;;;16.83;7.07;;;20.70;99.90;;;;;;4947915;29;20043;-70
2022/10/28 12:20:35;;;;;;;16.98;7.32;;;20.70;99.90;;;;;;4949767;29;20414;-70
2022/10/28 12:23:08;;;;;;;17.77;6.95;;;20.80;99.90;;;;;;4946902;28;20041;-70
2022/10/28 12:25:35;;;;;;;18.58;7.28;;;20.80;99.90;;;;;;4959913;23;20564;-66
2022/10/28 12:28:31;;;;;;;19.70;6.88;;;20.80;99.90;;;;;;4942681;29;20060;-65
2022/10/28 12:30:57;;;;;;;22.05;7.15;;;20.90;99.90;;;;;;4929626;29;20127;-64
2022/10/28 12:33:26;;;;;;;19.20;7.35;;;20.80;99.90;;;;;;4949491;29;20521;-65
2022/10/28 12:36:14;;;;;;;19.13;7.50;;;20.90;99.90;;;;;;4930603;28;20040;-66
2022/10/28 12:38:47;;;;;;;17.27;7.57;;;21.00;99.90;;;;;;4927911;29;20079;-67
2022/10/28 12:41:22;;;;;;;21.45;7.00;;;21.00;99.90;;;;;;4914325;29;20338;-68
2022/10/28 12:43:50;;;;;;;18.20;7.82;;;21.00;99.90;;;;;;4913430;29;20044;-68
2022/10/28 12:46:43;;;;;;;20.85;7.38;;;20.90;99.90;;;;;;4932938;29;20044;-68
2022/10/28 12:49:17;;;;;;;14.93;6.80;;;20.90;99.90;;;;;;4935293;29;20036;-67
2022/10/28 12:51:43;;;;;;;15.75;7.65;;;20.90;99.90;;;;;;4924729;29;20294;-68